Weather at Alicante International Airport

Public forecast

Using degrees Celsius for public forecast. Weather courtesy of forecast.io.

Current aviation weather report (METAR) for Alicante International Airport

Retrieved 2020/10/27 23:30 UTC (2 minutes ago):

LEAL 272330Z 26007KT 230V290 CAVOK 16/03 Q1019 NOSIG

Aviation forecast (TAF) for Alicante International Airport

Retrieved 2020/10/27 18:27 UTC (5 hours ago):

TAF TAF LEAL 271700Z 2718/2818 25009KT 9999 FEW020 TX24/2812Z TN12/2806Z BECMG 2723/2801 31008KT BECMG 2809/2811 09008KT